createdAt,value
2019-04-06T00:01:52.973Z,69.33
2019-04-06T00:04:19.648Z,71.37
2019-04-06T00:06:46.565Z,74.40
2019-04-06T00:09:14.027Z,76.77
2019-04-06T00:11:40.972Z,73.60
2019-04-06T00:14:07.735Z,83.10
2019-04-06T00:16:34.807Z,84.77
2019-04-06T00:19:01.604Z,85.97
2019-04-06T00:21:28.273Z,89.93
2019-04-06T00:23:54.805Z,85.57
2019-04-06T00:26:21.356Z,83.23
2019-04-06T00:28:48.175Z,82.57
2019-04-06T00:31:20.503Z,88.10
2019-04-06T00:33:47.270Z,83.07
2019-04-06T00:36:13.808Z,83.33
2019-04-06T00:38:40.592Z,80.40
2019-04-06T00:41:09.101Z,82.53
2019-04-06T00:43:36.733Z,82.67
2019-04-06T00:46:03.915Z,84.90
2019-04-06T00:48:31.316Z,88.27
2019-04-06T00:50:58.823Z,90.63
2019-04-06T00:53:25.395Z,89.60
2019-04-06T00:55:55.872Z,88.00
2019-04-06T00:58:23.245Z,92.80
2019-04-06T01:00:50.561Z,92.20
2019-04-06T01:03:17.142Z,88.87
2019-04-06T01:05:44.038Z,89.47
2019-04-06T01:08:11.836Z,92.03
2019-04-06T01:10:38.464Z,90.13
2019-04-06T01:13:05.013Z,92.80
2019-04-06T01:15:31.610Z,94.07
2019-04-06T01:17:59.931Z,94.10
2019-04-06T01:20:26.923Z,97.50
2019-04-06T01:22:53.381Z,93.77
2019-04-06T01:25:20.340Z,98.00
2019-04-06T01:27:48.851Z,94.37
2019-04-06T01:30:16.250Z,96.40
2019-04-06T01:32:43.130Z,95.50
2019-04-06T01:35:10.293Z,102.20
2019-04-06T01:37:37.678Z,95.47
2019-04-06T01:40:05.749Z,89.73
2019-04-06T01:42:32.877Z,89.67
2019-04-06T01:44:59.573Z,84.47
2019-04-06T01:47:26.402Z,85.23
2019-04-06T01:49:53.962Z,86.57
2019-04-06T01:52:20.565Z,86.17
2019-04-06T01:54:47.499Z,85.60
2019-04-06T01:57:15.383Z,88.33
2019-04-06T01:59:42.085Z,85.40
2019-04-06T02:02:10.409Z,88.83
2019-04-06T02:04:37.031Z,88.57
2019-04-06T02:07:03.873Z,85.73
2019-04-06T02:09:30.514Z,84.57
2019-04-06T02:11:58.208Z,81.80
2019-04-06T02:14:24.556Z,78.20
2019-04-06T02:16:51.172Z,73.93
2019-04-06T02:19:17.828Z,77.60
2019-04-06T02:21:45.048Z,81.30
2019-04-06T02:24:11.923Z,72.43
2019-04-06T02:26:38.790Z,75.37
2019-04-06T02:29:05.815Z,73.03
2019-04-06T02:31:49.213Z,74.60
2019-04-06T02:34:34.220Z,71.40
2019-04-06T02:37:10.257Z,71.30
2019-04-06T02:39:38.617Z,70.90
2019-04-06T02:46:03.689Z,69.17
2019-04-06T02:48:30.865Z,70.50
2019-04-06T02:50:58.994Z,69.00
2019-04-06T02:53:25.545Z,66.40
2019-04-06T02:55:52.104Z,68.57
2019-04-06T02:58:18.593Z,68.27
2019-04-06T03:00:45.208Z,68.60
2019-04-06T03:03:11.989Z,66.90
2019-04-06T03:05:38.581Z,68.40
2019-04-06T03:08:05.088Z,69.97
2019-04-06T03:10:31.847Z,66.43
2019-04-06T03:12:58.505Z,66.80
2019-04-06T03:15:25.843Z,72.17
2019-04-06T03:17:52.330Z,74.77
2019-04-06T03:20:19.681Z,68.23
2019-04-06T03:22:46.090Z,63.70
2019-04-06T03:25:12.622Z,69.37
2019-04-06T03:27:39.220Z,73.07
2019-04-06T03:30:06.327Z,68.30
2019-04-06T03:32:33.851Z,68.67
2019-04-06T03:35:00.309Z,65.97
2019-04-06T03:37:26.724Z,67.93
2019-04-06T03:39:53.197Z,68.70
2019-04-06T03:42:21.050Z,71.27
2019-04-06T03:44:47.935Z,74.30
2019-04-06T03:47:14.414Z,72.47
2019-04-06T03:49:41.078Z,68.80
2019-04-06T03:52:19.858Z,69.47
2019-04-06T03:54:46.488Z,65.67
2019-04-06T03:57:15.807Z,68.80
2019-04-06T03:59:43.055Z,71.30
2019-04-06T04:02:09.990Z,69.37
2019-04-06T04:04:36.736Z,68.07
2019-04-06T04:07:03.666Z,67.07
2019-04-06T04:09:30.067Z,66.57
2019-04-06T04:11:57.480Z,68.10
2019-04-06T04:14:25.090Z,67.50
2019-04-06T04:16:51.945Z,65.83
2019-04-06T04:19:18.418Z,65.07
2019-04-06T04:21:44.941Z,64.03
2019-04-06T04:24:11.741Z,61.87
2019-04-06T04:26:38.183Z,62.40
2019-04-06T04:29:04.845Z,62.47
2019-04-06T04:31:31.255Z,60.20
2019-04-06T04:33:58.017Z,61.00
2019-04-06T04:36:24.578Z,60.63
2019-04-06T04:38:51.451Z,55.00
2019-04-06T04:41:17.933Z,58.27
2019-04-06T04:43:48.412Z,55.40
2019-04-06T04:46:16.023Z,52.20
2019-04-06T04:48:42.781Z,53.60
2019-04-06T04:51:13.435Z,47.00
2019-04-06T04:53:40.012Z,51.90
2019-04-06T04:56:06.583Z,50.60
2019-04-06T04:58:33.577Z,49.10
2019-04-06T05:01:00.156Z,46.43
2019-04-06T05:03:26.963Z,47.63
2019-04-06T05:05:53.478Z,44.87
2019-04-06T05:08:20.252Z,46.03
2019-04-06T05:10:46.855Z,46.67
2019-04-06T05:13:14.039Z,45.27
2019-04-06T05:15:54.283Z,44.70
2019-04-06T05:18:20.910Z,42.43
2019-04-06T05:20:48.381Z,44.23
2019-04-06T05:23:15.764Z,46.33
2019-04-06T05:25:42.539Z,47.87
2019-04-06T05:28:09.156Z,43.93
2019-04-06T05:30:37.931Z,43.20
2019-04-06T05:33:06.258Z,44.47
2019-04-06T05:35:32.601Z,43.23
2019-04-06T05:37:59.286Z,43.87
2019-04-06T05:40:25.784Z,44.60
2019-04-06T05:42:52.865Z,45.63
2019-04-06T05:45:19.561Z,45.33
2019-04-06T05:47:48.076Z,46.00
2019-04-06T05:50:14.708Z,46.07
2019-04-06T05:52:41.441Z,44.27
2019-04-06T05:55:08.597Z,46.03
2019-04-06T05:57:37.189Z,42.00
2019-04-06T06:00:10.143Z,41.37
2019-04-06T06:02:40.329Z,41.50
2019-04-06T06:05:05.664Z,40.87
2019-04-06T06:07:33.147Z,41.13
2019-04-06T06:09:59.936Z,39.07
2019-04-06T06:12:26.815Z,37.87
2019-04-06T06:14:55.531Z,36.07
2019-04-06T06:17:22.115Z,36.87
2019-04-06T06:19:49.490Z,36.83
2019-04-06T06:22:16.415Z,33.60
2019-04-06T06:24:43.298Z,33.80
2019-04-06T06:27:11.965Z,30.67
2019-04-06T06:29:39.059Z,32.00
2019-04-06T06:32:05.557Z,33.40
2019-04-06T06:34:33.014Z,31.17
2019-04-06T06:36:59.491Z,31.20
2019-04-06T06:39:26.148Z,30.40
2019-04-06T06:41:53.111Z,31.23
2019-04-06T06:44:20.148Z,28.40
2019-04-06T06:46:46.665Z,31.03
2019-04-06T06:49:13.336Z,31.40
2019-04-06T06:51:39.872Z,26.47
2019-04-06T06:54:07.505Z,29.50
2019-04-06T06:56:34.108Z,29.93
2019-04-06T06:59:00.837Z,28.93
2019-04-06T07:01:27.328Z,29.73
2019-04-06T07:03:53.843Z,28.27
2019-04-06T07:06:20.631Z,30.57
2019-04-06T07:08:48.024Z,29.70
2019-04-06T07:11:14.663Z,28.50
2019-04-06T07:13:41.507Z,27.17
2019-04-06T07:16:08.010Z,29.30
2019-04-06T07:18:34.602Z,28.47
2019-04-06T07:21:01.555Z,27.17
2019-04-06T07:23:28.894Z,28.50
2019-04-06T07:25:58.365Z,27.80
2019-04-06T07:28:31.698Z,30.87
2019-04-06T07:30:52.561Z,28.83
2019-04-06T07:33:20.006Z,30.70
2019-04-06T07:35:46.428Z,29.40
2019-04-06T07:38:12.819Z,29.17
2019-04-06T07:40:39.515Z,28.60
2019-04-06T07:43:06.389Z,30.83
2019-04-06T07:45:33.317Z,29.30
2019-04-06T07:48:01.530Z,28.30
2019-04-06T07:50:27.899Z,29.87
2019-04-06T07:52:54.629Z,29.27
2019-04-06T07:55:21.195Z,28.30
2019-04-06T07:57:48.142Z,27.90
2019-04-06T08:00:14.899Z,27.33
2019-04-06T08:02:42.630Z,27.30
2019-04-06T08:05:19.149Z,27.90
2019-04-06T08:07:56.318Z,28.33
2019-04-06T08:10:22.926Z,29.30
2019-04-06T08:12:50.467Z,27.33
2019-04-06T08:15:19.753Z,28.10
2019-04-06T08:17:49.405Z,29.20
2019-04-06T08:20:16.397Z,27.73
2019-04-06T08:22:42.939Z,27.63
2019-04-06T08:25:10.649Z,26.20
2019-04-06T08:27:37.366Z,26.60
2019-04-06T08:30:09.012Z,27.93
2019-04-06T08:32:35.891Z,27.57
2019-04-06T08:35:05.455Z,26.83
2019-04-06T08:37:32.155Z,26.80
2019-04-06T08:39:58.700Z,28.40
2019-04-06T08:42:25.331Z,28.20
2019-04-06T08:44:51.901Z,28.33
2019-04-06T08:47:18.814Z,27.57
2019-04-06T08:49:45.299Z,27.80
2019-04-06T08:52:12.374Z,28.50
2019-04-06T08:54:38.891Z,30.57
2019-04-06T08:57:05.316Z,29.30
2019-04-06T08:59:32.654Z,28.57
2019-04-06T09:01:59.425Z,28.43
2019-04-06T09:04:25.777Z,27.13
2019-04-06T09:06:54.480Z,28.53
2019-04-06T09:09:23.578Z,25.37
2019-04-06T09:11:50.384Z,26.33
2019-04-06T09:14:17.712Z,25.03
2019-04-06T09:16:45.461Z,24.33
2019-04-06T09:19:12.203Z,25.23
2019-04-06T09:21:38.726Z,26.53
2019-04-06T09:24:05.581Z,26.10
2019-04-06T09:26:37.544Z,25.40
2019-04-06T09:29:04.593Z,26.80
2019-04-06T09:31:31.494Z,25.77
2019-04-06T09:33:58.074Z,26.40
2019-04-06T09:36:25.055Z,26.40
2019-04-06T09:38:51.909Z,23.80
2019-04-06T09:41:18.573Z,23.60
2019-04-06T09:43:45.039Z,24.40
2019-04-06T09:46:31.473Z,24.20
2019-04-06T09:49:01.012Z,21.70
2019-04-06T09:51:41.490Z,25.43
2019-04-06T09:54:09.982Z,23.53
2019-04-06T09:56:38.818Z,22.97
2019-04-06T09:59:33.991Z,22.10
2019-04-06T10:02:09.118Z,19.00
2019-04-06T10:04:46.477Z,22.30
2019-04-06T10:07:21.399Z,21.70
2019-04-06T10:09:51.532Z,20.87
2019-04-06T10:12:28.076Z,20.87
2019-04-06T10:15:02.480Z,20.10
2019-04-06T10:17:38.902Z,22.10
2019-04-06T10:20:26.811Z,22.07
2019-04-06T10:22:56.108Z,21.97
2019-04-06T10:25:31.027Z,24.13
2019-04-06T10:27:59.490Z,22.10
2019-04-06T10:30:44.095Z,23.30
2019-04-06T10:33:22.402Z,22.50
2019-04-06T10:35:56.064Z,21.03
2019-04-06T10:38:25.290Z,22.40
2019-04-06T10:40:58.866Z,23.63
2019-04-06T10:43:28.335Z,23.20
2019-04-06T10:46:14.981Z,22.47
2019-04-06T10:48:49.064Z,21.63
2019-04-06T10:51:26.297Z,21.00
2019-04-06T10:53:57.782Z,22.73
2019-04-06T10:56:30.243Z,20.70
2019-04-06T10:59:03.718Z,20.30
2019-04-06T11:01:32.234Z,21.63
2019-04-06T11:04:04.395Z,19.00
2019-04-06T11:06:39.562Z,18.30
2019-04-06T11:09:14.673Z,18.10
2019-04-06T11:12:01.065Z,18.97
2019-04-06T11:14:30.332Z,18.87
2019-04-06T11:17:00.745Z,20.03
2019-04-06T11:28:24.189Z,19.50
2019-04-06T11:31:17.770Z,19.73
2019-04-06T11:33:49.519Z,19.63
2019-04-06T11:48:28.726Z,19.97
2019-04-06T11:51:19.950Z,21.80
2019-04-06T11:54:23.931Z,19.83
2019-04-06T12:09:35.354Z,21.50
2019-04-06T12:12:18.552Z,22.03
2019-04-06T12:15:19.429Z,20.23
2019-04-06T12:18:17.880Z,20.73
2019-04-06T12:21:07.112Z,20.67
2019-04-06T12:23:39.440Z,19.47
2019-04-06T12:29:33.415Z,18.03
2019-04-06T12:32:19.593Z,19.40
2019-04-06T12:35:02.955Z,16.67
2019-04-06T12:50:17.298Z,17.23
2019-04-06T12:52:53.590Z,18.30
2019-04-06T12:55:32.275Z,17.17
2019-04-06T13:01:15.535Z,17.57
2019-04-06T13:19:13.689Z,19.70
2019-04-06T13:21:49.709Z,20.50
2019-04-06T13:24:43.597Z,20.20
2019-04-06T13:27:17.266Z,20.77
2019-04-06T13:30:05.336Z,19.50
2019-04-06T13:35:48.952Z,20.87
2019-04-06T13:38:41.097Z,20.63
2019-04-06T13:41:18.622Z,19.97
2019-04-06T13:49:50.954Z,20.37
2019-04-06T13:56:02.262Z,21.60
2019-04-06T13:58:32.184Z,20.90
2019-04-06T14:01:14.769Z,22.03
2019-04-06T14:03:40.241Z,21.40
2019-04-06T14:06:28.053Z,20.77
2019-04-06T14:09:15.345Z,22.47
2019-04-06T14:11:54.680Z,21.17
2019-04-06T14:14:46.485Z,22.10
2019-04-06T14:17:23.650Z,20.27
2019-04-06T14:20:03.426Z,23.13
2019-04-06T14:22:42.058Z,21.77
2019-04-06T14:25:35.754Z,22.70
2019-04-06T14:28:20.701Z,22.60
2019-04-06T14:40:42.451Z,22.50
2019-04-06T14:46:15.383Z,24.03
2019-04-06T15:04:22.493Z,22.43
2019-04-06T15:41:03.797Z,24.70
2019-04-06T15:49:56.948Z,25.70
2019-04-06T16:19:50.266Z,23.43
2019-04-06T16:22:38.365Z,24.83
2019-04-06T16:31:16.648Z,26.13
2019-04-06T16:33:45.138Z,24.93
2019-04-06T16:36:21.787Z,25.73
2019-04-06T16:39:04.941Z,26.70
2019-04-06T16:41:48.716Z,25.80
2019-04-06T16:44:33.635Z,26.17
2019-04-06T16:47:33.657Z,25.27
2019-04-06T16:50:13.512Z,24.60
2019-04-06T16:55:53.923Z,25.33
2019-04-06T16:58:35.530Z,26.30
2019-04-06T17:04:31.865Z,26.73
2019-04-06T17:07:38.745Z,26.47
2019-04-06T17:10:18.217Z,24.20
2019-04-06T17:13:09.654Z,23.47
2019-04-06T17:16:10.967Z,23.80
2019-04-06T17:18:52.566Z,24.30
2019-04-06T17:24:23.724Z,23.10
2019-04-06T17:27:10.594Z,23.80
2019-04-06T17:29:49.705Z,24.47
2019-04-06T17:32:35.936Z,24.00
2019-04-06T17:38:24.431Z,23.53
2019-04-06T17:40:57.438Z,24.10
2019-04-06T17:43:31.095Z,23.97
2019-04-06T17:46:38.817Z,22.00
2019-04-06T17:49:17.383Z,24.27
2019-04-06T17:51:59.147Z,23.00
2019-04-06T17:54:43.383Z,23.70
2019-04-06T18:08:57.301Z,23.50
2019-04-06T18:14:25.524Z,22.90
2019-04-06T18:19:58.508Z,24.43
2019-04-06T18:25:32.538Z,24.63
2019-04-06T18:27:59.437Z,24.87
2019-04-06T18:30:29.435Z,24.90
2019-04-06T18:33:05.687Z,24.30
2019-04-06T18:41:11.357Z,25.00
2019-04-06T18:43:39.849Z,24.23
2019-04-06T18:46:17.974Z,22.63
2019-04-06T18:48:52.376Z,25.20
2019-04-06T18:51:33.107Z,23.53
2019-04-06T18:54:08.381Z,24.70
2019-04-06T18:56:39.051Z,24.00
2019-04-06T19:02:05.413Z,24.90
2019-04-06T19:04:43.070Z,23.10
2019-04-06T19:07:17.946Z,23.20
2019-04-06T19:12:59.023Z,23.87
2019-04-06T19:15:27.006Z,22.03
2019-04-06T19:18:13.463Z,21.83
2019-04-06T19:20:50.147Z,21.60
2019-04-06T19:23:27.693Z,21.57
2019-04-06T19:26:16.209Z,21.53
2019-04-06T19:37:28.440Z,24.00
2019-04-06T19:45:51.333Z,21.80
2019-04-06T19:48:25.763Z,22.83
2019-04-06T19:53:48.942Z,21.60
2019-04-06T19:56:19.387Z,21.50
2019-04-06T19:59:07.098Z,22.90
2019-04-06T20:04:24.437Z,20.77
2019-04-06T20:06:55.067Z,21.07
2019-04-06T20:09:27.552Z,20.93
2019-04-06T20:12:10.319Z,20.80
2019-04-06T20:14:41.895Z,20.73
2019-04-06T20:17:14.609Z,22.27
2019-04-06T20:19:54.654Z,21.60
2019-04-06T20:22:27.601Z,19.80
2019-04-06T20:30:40.794Z,21.07
2019-04-06T20:39:15.693Z,21.07
2019-04-06T20:42:00.867Z,22.63
2019-04-06T20:44:37.077Z,22.90
2019-04-06T20:49:53.748Z,23.10
2019-04-06T20:55:18.945Z,22.40
2019-04-06T20:57:58.246Z,23.80
2019-04-06T21:00:31.792Z,21.00
2019-04-06T21:23:11.627Z,20.37
2019-04-06T21:37:25.959Z,23.33
2019-04-06T21:39:54.786Z,23.10
2019-04-06T21:42:25.619Z,24.50
2019-04-06T21:44:58.303Z,24.27
2019-04-06T21:50:19.100Z,23.40
2019-04-06T21:52:50.873Z,24.47
2019-04-06T22:04:29.356Z,24.23
2019-04-06T22:07:13.308Z,23.40
2019-04-06T22:09:41.281Z,23.70
2019-04-06T22:12:08.291Z,26.50
2019-04-06T22:17:27.749Z,24.70
2019-04-06T22:19:56.687Z,23.47
2019-04-06T22:22:23.862Z,24.50
2019-04-06T22:25:16.664Z,25.00
2019-04-06T22:27:28.271Z,25.60
2019-04-06T22:29:56.530Z,25.03
2019-04-06T22:32:28.204Z,23.50
2019-04-06T22:34:55.934Z,25.67
2019-04-06T22:37:23.340Z,26.40
2019-04-06T22:39:54.215Z,24.20
2019-04-06T22:42:21.298Z,24.10
2019-04-06T22:44:48.446Z,25.57
2019-04-06T22:47:15.306Z,25.37
2019-04-06T22:49:41.974Z,24.10
2019-04-06T22:52:08.883Z,26.30
2019-04-06T22:54:38.743Z,25.90
2019-04-06T22:57:05.658Z,25.20
2019-04-06T23:02:28.136Z,27.60
2019-04-06T23:05:00.254Z,25.87
2019-04-06T23:07:27.157Z,24.93
2019-04-06T23:09:54.174Z,25.57
2019-04-06T23:12:21.136Z,24.60
2019-04-06T23:14:47.776Z,25.73
2019-04-06T23:17:14.691Z,25.53
2019-04-06T23:19:41.951Z,25.87
2019-04-06T23:22:09.064Z,25.93
2019-04-06T23:24:37.464Z,26.60
2019-04-06T23:27:06.051Z,24.17
2019-04-06T23:29:32.752Z,23.63
2019-04-06T23:32:01.104Z,26.20
2019-04-06T23:34:32.364Z,23.50
2019-04-06T23:36:59.132Z,28.13
2019-04-06T23:39:29.644Z,28.90
2019-04-06T23:41:58.959Z,29.40
2019-04-06T23:44:26.073Z,27.47
2019-04-06T23:46:54.964Z,27.50
2019-04-06T23:49:22.432Z,26.00
2019-04-06T23:51:49.292Z,27.07
2019-04-06T23:54:16.832Z,28.13
2019-04-06T23:56:48.434Z,29.00
2019-04-06T23:59:15.059Z,29.77
